Terminal Aerodrome Forecast
Issued by NWS

Home | Current Version | Previous Version | Text Only | Print | Product List | Glossary Off
Versions: 1 2 3 4 5 6 7 8 9 10 11 12 13 14 15

000
FTUS43 KIWX 201841 AAA
TAFSBN
TAF AMD
KSBN 201841Z 2019/2118 25012G20KT P6SM BKN050 BKN100
     FM202000 27015G25KT P6SM VCTS BKN035CB
     FM210000 29013KT P6SM OVC020=

USA.gov is the U.S. government's official web portal to all federal, state and local government web resources and services.